Weather observations for the past three days for
Galena, Edward G. Pitka Sr. Airport
Metric (Imperial)
Date Time (akdt) Wind (kph) Vis. (km) Weather Sky Cond. Temperature (ºC) Relative Humidity Wind Chill (°C) Heat Index (°C) Pressure Precipitation (cm)
Air Dwpt 6 hour altimeter (cm) sea level (mb) 1 hr 3 hr 6 hr
Max. Min.
04 00:56 Calm 16.09 Overcast OVC039 -0.6 -4.4 76% 76.43 1019.4
03 23:56 N 9 16.09 Fair CLR 0 -4.4 73% -3 76.43 1019.2
03 22:56 N 7 16.09 Fair CLR 1.1 -5 64% -1 76.43 1019.2
03 21:56 N 7 16.09 A Few Clouds FEW001 2.8 -5 3.9 2.2 57% 1 76.43 1019.2
03 20:56 NE 11 16.09 Fair CLR 3.3 -5.6 52% 1 76.43 1019.2
03 19:56 Vrbl 6 16.09 Fair CLR 3.3 -5 55% 76.43 1019.2
03 18:56 W 7 16.09 Mostly Cloudy BKN037 3.9 -5 53% 2 76.45 1019.4
03 17:56 W 7 16.09 A Few Clouds FEW001 3.3 -5 55% 2 76.45 1019.6
03 16:56 W 6 16.09 A Few Clouds FEW034 3.3 -4.4 57% 76.48 1019.9
03 15:56 W 9 16.09 Mostly Cloudy BKN032 2.2 -5 2.8 0 59% -0 76.5 1020.1
03 14:56 W 9 16.09 Overcast OVC030 1.7 -5 61% -1 76.5 1020.1
03 13:56 SW 9 16.09 Overcast OVC026 1.1 -5.6 61% -1 76.5 1020.2
03 12:56 W 15 16.09 Overcast OVC028 0.6 -5.6 64% -3 76.5 1020.2
03 11:56 W 17 16.09 Overcast OVC030 0 -5 69% -4 76.48 1019.9
03 10:56 SW 15 16.09 Partly Cloudy SCT028 0.6 -5.6 64% -3 76.45 1019.6
03 09:56 SW 19 16.09 Overcast FEW001 OVC028 0.6 -4.4 0.6 -0.6 70% -4 76.43 1019.3
03 08:56 SW 19 16.09 Overcast OVC026 0 -3.3 79% -5 76.38 1018.7
03 07:56 SW 11 16.09 Overcast OVC030 0 -3.3 79% -3 76.33 1018.0
03 06:56 SW 13 16.09 Overcast BKN028 OVC034 0 -2.2 85% -4 76.3 1017.6
03 05:56 SW 13 16.09 Overcast OVC032 0 -2.2 85% -4 76.25 1016.8
03 04:56 W 22 16.09 Overcast OVC030 0.6 -1.1 89% -4 76.2 1016.0
03 03:56 W 11 16.09 Light Snow OVC026 0.6 -0.6 3.9 0.6 92% -2 76.15 1015.4
03 02:56 SW 13 16.09 Light Snow OVC016 0.6 0 96% -3 76.1 1014.9
03 01:56 SW 11 16.09 Overcast BKN018 BKN023 OVC075 1.1 0.6 97% -2 76.07 1014.3
03 00:56 SW 6 16.09 Light Rain OVC023 2.8 0.6 86% 76 1013.4
02 23:56 SW 6 16.09 Light Rain OVC019 2.8 0.6 86% 75.95 1012.7
02 22:56 SW 6 16.09 Overcast OVC023 3.9 0 76% 75.9 1012.1
02 21:56 SW 6 16.09 Light Rain BKN025 OVC030 3.9 0.6 6.7 3.9 79% 75.84 1011.3
02 20:56 SW 17 16.09 Light Rain OVC027 4.4 0.6 77% 1 75.79 1010.7
02 19:56 S 13 16.09 Overcast BKN034 OVC060 5.6 0 68% 3 75.74 1010.2
02 18:56 S 17 G 31 16.09 Overcast FEW028 BKN033 OVC060 5.6 0 68% 3 75.72 1009.6
02 17:56 S 22 16.09 Overcast OVC055 6.1 0 65% 3 75.67 1009.0
02 16:56 SW 20 G 31 16.09 Overcast BKN033 OVC045 6.7 0 63% 3 75.62 1008.4
02 15:56 S 17 16.09 Overcast BKN032 BKN046 OVC065 6.1 0 6.1 3.9 65% 3 75.59 1007.8
02 14:56 S 19 16.09 Mostly Cloudy BKN029 BKN050 5.6 0.6 71% 2 75.54 1007.2
02 13:56 S 19 16.09 Overcast OVC029 5.6 0.6 71% 2 75.46 1006.2
02 12:56 S 17 16.09 Overcast OVC027 5 0.6 73% 2 75.39 1005.2
02 11:56 S 19 16.09 Overcast OVC029 4.4 0.6 77% 1 75.31 1004.2
02 10:56 S 15 16.09 Overcast OVC027 4.4 0.6 77% 1 75.21 1003.0
02 09:56 S 15 16.09 Overcast OVC029 3.9 0.6 3.9 2.8 79% 1 75.13 1002.0
02 08:56 S 15 16.09 Overcast OVC028 3.9 0.6 79% 1 75.08 1001.1
02 07:56 SE 11 16.09 Overcast SCT026 BKN031 OVC048 2.8 0.6 86% 0 75.01 1000.1
02 06:56 S 13 16.09 Overcast FEW023 OVC070 2.8 0.6 86% -0 74.96 999.4
02 05:56 SE 11 16.09 Overcast OVC055 2.8 0.6 86% 0 74.9 998.7
02 04:56 SE 11 16.09 Overcast BKN060 OVC070 2.8 1.1 89% 0 74.83 998.0
02 03:56 SE 9 16.09 Light Rain FEW017 BKN037 OVC044 2.8 1.7 6.1 2.8 93% 1 74.8 997.4 0.03 0.08
02 02:56 SE 11 16.09 Light Rain BKN017 OVC031 3.3 1.1 86% 1 74.78 997.0 0.05
02 01:56 SE 6 16.09 Light Rain OVC021 3.9 1.1 82% 74.73 996.3
02 00:56 S 11 16.09 Overcast SCT025 BKN039 OVC065 3.9 1.1 82% 1 74.68 995.7
01 23:56 SE 7 16.09 Light Rain BKN025 BKN030 OVC042 3.9 1.1 82% 2 74.63 995.1
01 22:56 SE 7 16.09 Light Rain BKN036 BKN050 5 1.1 76% 4 74.57 994.6
01 21:56 SE 13 16.09 Overcast OVC055 6.1 -0.6 8.3 6.1 63% 4 74.55 994.0
01 20:56 SE 13 16.09 Mostly Cloudy BKN060 7.2 -1.1 56% 5 74.5 993.4
01 19:56 E 19 16.09 Light Rain BKN047 OVC060 7.2 -0.6 58% 4 74.5 993.3
01 18:56 E 19 16.09 Overcast OVC050 7.8 -1.1 54% 5 74.47 993.1
01 17:56 E 11 16.09 Overcast OVC048 7.8 0 58% 6 74.52 993.7
01 16:56 E 11 16.09 Mostly Cloudy BKN050 BKN060 7.8 0 58% 6 74.57 994.4
01 15:56 SE 26 G 35 16.09 Overcast OVC050 8.3 -1.1 8.3 3.3 52% 5 74.57 994.5
01 14:56 E 19 16.09 Overcast OVC060 7.2 -2.2 52% 4 74.6 994.7
01 13:56 SE 19 16.09 A Few Clouds FEW001 7.8 -2.8 47% 5 74.63 995.1
01 12:56 E 19 16.09 Mostly Cloudy BKN075 BKN085 6.1 -2.2 56% 3 74.68 995.7
01 11:56 E 15 16.09 Overcast OVC070 5 -1.7 62% 2 74.7 996.0
01 10:56 E 17 16.09 Fair CLR 4.4 -1.1 68% 1 74.7 996.2
01 09:56 E 22 16.09 Overcast BKN065 BKN080 OVC095 3.3 -1.1 4.4 3.3 73% -1 74.75 996.8
01 08:56 SE 26 16.09 Overcast OVC100 3.9 -1.1 70% -1 74.8 997.4
01 07:56 SE 30 16.09 Overcast OVC090 3.9 -0.6 73% -1 74.85 998.0
01 06:56 SE 33 16.09 Overcast and Breezy SCT065 OVC085 4.4 -1.1 68% -1 74.9 998.9
01 05:56 SE 33 G 43 16.09 Overcast and Breezy OVC080 4.4 -0.6 70% -1 74.93 999.0
01 04:56 E 20 16.09 Overcast OVC080 3.3 0 79% -1 74.98 999.9
01 03:56 SE 19 16.09 Overcast BKN075 OVC090 3.9 0 3.9 1.7 76% 0 75.06 1000.8
01 02:56 SE 28 16.09 Overcast OVC070 3.9 0 76% -1 75.08 1001.1
Date Time (akdt) Wind (kph) Vis. (km) Weather Sky Cond. Air Dwpt Max. Min. Relative Humidity Wind Chill (°C) Heat Index (°C) altimeter (cm) sea level (mb) 1 hr 3 hr 6 hr
6 hour
Temperature (ºC) Pressure Precipitation (cm)